sensor_id;sensor_type;location;lat;lon;timestamp;P1;durP1;ratioP1;P2;durP2;ratioP2
4961;SDS011;2496;52.468;13.342;2022-09-30T00:01:51;8.30;;;7.00;;
4961;SDS011;2496;52.468;13.342;2022-09-30T00:04:20;9.17;;;7.17;;
4961;SDS011;2496;52.468;13.342;2022-09-30T00:06:48;9.63;;;6.90;;
4961;SDS011;2496;52.468;13.342;2022-09-30T00:09:16;14.50;;;7.00;;
4961;SDS011;2496;52.468;13.342;2022-09-30T00:11:43;8.27;;;7.10;;
4961;SDS011;2496;52.468;13.342;2022-09-30T00:14:12;10.03;;;7.33;;
4961;SDS011;2496;52.468;13.342;2022-09-30T00:16:42;8.13;;;6.90;;
4961;SDS011;2496;52.468;13.342;2022-09-30T00:19:10;11.60;;;7.87;;
4961;SDS011;2496;52.468;13.342;2022-09-30T00:21:37;8.60;;;7.23;;
4961;SDS011;2496;52.468;13.342;2022-09-30T00:24:04;8.73;;;7.73;;
4961;SDS011;2496;52.468;13.342;2022-09-30T00:26:32;8.80;;;7.10;;
4961;SDS011;2496;52.468;13.342;2022-09-30T00:28:59;8.10;;;6.80;;
4961;SDS011;2496;52.468;13.342;2022-09-30T00:31:27;12.37;;;8.67;;
4961;SDS011;2496;52.468;13.342;2022-09-30T00:33:57;10.00;;;7.90;;
4961;SDS011;2496;52.468;13.342;2022-09-30T00:36:33;8.40;;;7.50;;
4961;SDS011;2496;52.468;13.342;2022-09-30T00:39:02;11.90;;;8.53;;
4961;SDS011;2496;52.468;13.342;2022-09-30T00:41:31;8.47;;;7.03;;
4961;SDS011;2496;52.468;13.342;2022-09-30T00:43:58;10.57;;;7.37;;
4961;SDS011;2496;52.468;13.342;2022-09-30T00:46:28;12.13;;;9.10;;
4961;SDS011;2496;52.468;13.342;2022-09-30T00:48:59;10.00;;;7.23;;
4961;SDS011;2496;52.468;13.342;2022-09-30T00:51:31;9.40;;;7.60;;
4961;SDS011;2496;52.468;13.342;2022-09-30T00:54:04;10.97;;;8.17;;
4961;SDS011;2496;52.468;13.342;2022-09-30T00:56:36;10.97;;;8.50;;
4961;SDS011;2496;52.468;13.342;2022-09-30T00:59:09;11.20;;;8.27;;
4961;SDS011;2496;52.468;13.342;2022-09-30T01:01:41;8.80;;;7.60;;
4961;SDS011;2496;52.468;13.342;2022-09-30T01:04:10;10.00;;;7.83;;
4961;SDS011;2496;52.468;13.342;2022-09-30T01:06:39;10.10;;;7.80;;
4961;SDS011;2496;52.468;13.342;2022-09-30T01:09:07;9.30;;;8.30;;
4961;SDS011;2496;52.468;13.342;2022-09-30T01:11:34;9.03;;;6.33;;
4961;SDS011;2496;52.468;13.342;2022-09-30T01:14:04;11.03;;;8.57;;
4961;SDS011;2496;52.468;13.342;2022-09-30T01:16:38;11.23;;;8.77;;
4961;SDS011;2496;52.468;13.342;2022-09-30T01:19:37;11.30;;;8.40;;
4961;SDS011;2496;52.468;13.342;2022-09-30T01:22:35;11.33;;;8.00;;
4961;SDS011;2496;52.468;13.342;2022-09-30T01:31:16;11.20;;;8.53;;
4961;SDS011;2496;52.468;13.342;2022-09-30T01:33:53;8.97;;;7.57;;
4961;SDS011;2496;52.468;13.342;2022-09-30T01:36:30;11.53;;;8.47;;
4961;SDS011;2496;52.468;13.342;2022-09-30T01:39:11;12.13;;;8.17;;
4961;SDS011;2496;52.468;13.342;2022-09-30T01:41:49;9.90;;;7.80;;
4961;SDS011;2496;52.468;13.342;2022-09-30T01:44:25;9.87;;;7.43;;
4961;SDS011;2496;52.468;13.342;2022-09-30T01:47:00;11.83;;;7.77;;
4961;SDS011;2496;52.468;13.342;2022-09-30T01:49:37;10.17;;;8.10;;
4961;SDS011;2496;52.468;13.342;2022-09-30T01:52:09;12.13;;;8.33;;
4961;SDS011;2496;52.468;13.342;2022-09-30T01:54:41;10.93;;;8.50;;
4961;SDS011;2496;52.468;13.342;2022-09-30T01:57:13;11.67;;;8.23;;
4961;SDS011;2496;52.468;13.342;2022-09-30T01:59:46;11.57;;;8.10;;
4961;SDS011;2496;52.468;13.342;2022-09-30T02:02:22;11.20;;;8.03;;
4961;SDS011;2496;52.468;13.342;2022-09-30T02:04:52;11.07;;;8.33;;
4961;SDS011;2496;52.468;13.342;2022-09-30T02:07:24;13.40;;;8.50;;
4961;SDS011;2496;52.468;13.342;2022-09-30T02:09:56;12.23;;;7.40;;
4961;SDS011;2496;52.468;13.342;2022-09-30T02:12:29;9.47;;;8.20;;
4961;SDS011;2496;52.468;13.342;2022-09-30T02:15:02;9.77;;;7.83;;
4961;SDS011;2496;52.468;13.342;2022-09-30T02:17:35;11.70;;;7.90;;
4961;SDS011;2496;52.468;13.342;2022-09-30T02:20:07;9.90;;;7.90;;
4961;SDS011;2496;52.468;13.342;2022-09-30T02:22:39;10.70;;;8.30;;
4961;SDS011;2496;52.468;13.342;2022-09-30T02:25:09;12.27;;;9.00;;
4961;SDS011;2496;52.468;13.342;2022-09-30T02:27:43;12.33;;;7.87;;
4961;SDS011;2496;52.468;13.342;2022-09-30T02:30:13;11.23;;;8.47;;
4961;SDS011;2496;52.468;13.342;2022-09-30T02:32:43;9.27;;;7.90;;
4961;SDS011;2496;52.468;13.342;2022-09-30T02:35:16;9.17;;;7.33;;
4961;SDS011;2496;52.468;13.342;2022-09-30T02:37:47;11.50;;;7.33;;
4961;SDS011;2496;52.468;13.342;2022-09-30T02:40:18;10.77;;;7.97;;
4961;SDS011;2496;52.468;13.342;2022-09-30T02:42:49;9.60;;;7.77;;
4961;SDS011;2496;52.468;13.342;2022-09-30T02:45:17;11.60;;;8.77;;
4961;SDS011;2496;52.468;13.342;2022-09-30T02:47:55;9.83;;;7.87;;
4961;SDS011;2496;52.468;13.342;2022-09-30T02:50:30;11.33;;;7.90;;
4961;SDS011;2496;52.468;13.342;2022-09-30T02:53:04;10.17;;;7.67;;
4961;SDS011;2496;52.468;13.342;2022-09-30T02:55:46;9.93;;;7.37;;
4961;SDS011;2496;52.468;13.342;2022-09-30T02:58:29;12.60;;;8.43;;
4961;SDS011;2496;52.468;13.342;2022-09-30T03:01:00;11.47;;;8.73;;
4961;SDS011;2496;52.468;13.342;2022-09-30T03:03:31;9.60;;;7.60;;
4961;SDS011;2496;52.468;13.342;2022-09-30T03:06:11;11.03;;;7.43;;
4961;SDS011;2496;52.468;13.342;2022-09-30T03:08:38;9.30;;;7.47;;
4961;SDS011;2496;52.468;13.342;2022-09-30T03:11:06;12.27;;;9.27;;
4961;SDS011;2496;52.468;13.342;2022-09-30T03:16:35;9.90;;;8.10;;
4961;SDS011;2496;52.468;13.342;2022-09-30T03:22:12;13.93;;;9.30;;
4961;SDS011;2496;52.468;13.342;2022-09-30T03:25:14;11.13;;;8.30;;
4961;SDS011;2496;52.468;13.342;2022-09-30T03:27:51;16.20;;;9.27;;
4961;SDS011;2496;52.468;13.342;2022-09-30T03:30:27;12.87;;;9.17;;
4961;SDS011;2496;52.468;13.342;2022-09-30T03:33:01;14.30;;;9.47;;
4961;SDS011;2496;52.468;13.342;2022-09-30T03:35:39;11.57;;;8.17;;
4961;SDS011;2496;52.468;13.342;2022-09-30T03:38:14;12.43;;;8.77;;
4961;SDS011;2496;52.468;13.342;2022-09-30T03:40:52;12.50;;;9.27;;
4961;SDS011;2496;52.468;13.342;2022-09-30T03:43:25;13.23;;;8.97;;
4961;SDS011;2496;52.468;13.342;2022-09-30T03:45:57;12.30;;;9.00;;
4961;SDS011;2496;52.468;13.342;2022-09-30T03:48:29;13.97;;;8.73;;
4961;SDS011;2496;52.468;13.342;2022-09-30T03:50:59;13.77;;;8.43;;
4961;SDS011;2496;52.468;13.342;2022-09-30T03:53:27;14.97;;;10.70;;
4961;SDS011;2496;52.468;13.342;2022-09-30T03:55:54;11.87;;;9.10;;
4961;SDS011;2496;52.468;13.342;2022-09-30T03:58:21;10.10;;;7.40;;
4961;SDS011;2496;52.468;13.342;2022-09-30T04:00:49;13.60;;;8.50;;
4961;SDS011;2496;52.468;13.342;2022-09-30T04:03:18;16.50;;;9.53;;
4961;SDS011;2496;52.468;13.342;2022-09-30T04:05:45;11.10;;;8.27;;
4961;SDS011;2496;52.468;13.342;2022-09-30T04:08:14;11.30;;;8.00;;
4961;SDS011;2496;52.468;13.342;2022-09-30T04:10:42;9.97;;;8.40;;
4961;SDS011;2496;52.468;13.342;2022-09-30T04:13:09;10.67;;;8.33;;
4961;SDS011;2496;52.468;13.342;2022-09-30T04:15:37;11.90;;;8.10;;
4961;SDS011;2496;52.468;13.342;2022-09-30T04:18:04;15.13;;;9.20;;
4961;SDS011;2496;52.468;13.342;2022-09-30T04:20:31;11.43;;;8.37;;
4961;SDS011;2496;52.468;13.342;2022-09-30T04:22:58;13.97;;;9.13;;
4961;SDS011;2496;52.468;13.342;2022-09-30T04:25:27;10.17;;;7.77;;
4961;SDS011;2496;52.468;13.342;2022-09-30T04:27:54;10.03;;;7.93;;
4961;SDS011;2496;52.468;13.342;2022-09-30T04:30:21;12.53;;;9.10;;
4961;SDS011;2496;52.468;13.342;2022-09-30T04:32:48;16.77;;;8.50;;
4961;SDS011;2496;52.468;13.342;2022-09-30T04:35:15;14.60;;;9.10;;
4961;SDS011;2496;52.468;13.342;2022-09-30T04:37:42;12.50;;;8.67;;
4961;SDS011;2496;52.468;13.342;2022-09-30T04:40:10;12.23;;;9.03;;
4961;SDS011;2496;52.468;13.342;2022-09-30T04:42:39;12.67;;;8.63;;
4961;SDS011;2496;52.468;13.342;2022-09-30T04:45:07;15.57;;;8.97;;
4961;SDS011;2496;52.468;13.342;2022-09-30T04:47:35;14.57;;;9.30;;
4961;SDS011;2496;52.468;13.342;2022-09-30T04:50:02;10.90;;;8.37;;
4961;SDS011;2496;52.468;13.342;2022-09-30T04:52:29;11.03;;;7.87;;
4961;SDS011;2496;52.468;13.342;2022-09-30T04:54:57;11.83;;;7.67;;
4961;SDS011;2496;52.468;13.342;2022-09-30T04:57:23;12.20;;;8.10;;
4961;SDS011;2496;52.468;13.342;2022-09-30T04:59:52;11.33;;;8.60;;
4961;SDS011;2496;52.468;13.342;2022-09-30T05:02:19;15.17;;;8.20;;
4961;SDS011;2496;52.468;13.342;2022-09-30T05:04:46;12.83;;;8.47;;
4961;SDS011;2496;52.468;13.342;2022-09-30T05:07:13;14.13;;;8.80;;
4961;SDS011;2496;52.468;13.342;2022-09-30T05:09:40;15.37;;;9.80;;
4961;SDS011;2496;52.468;13.342;2022-09-30T05:12:07;11.27;;;8.73;;
4961;SDS011;2496;52.468;13.342;2022-09-30T05:14:33;15.87;;;9.20;;
4961;SDS011;2496;52.468;13.342;2022-09-30T05:17:02;14.30;;;9.70;;
4961;SDS011;2496;52.468;13.342;2022-09-30T05:19:29;12.17;;;8.87;;
4961;SDS011;2496;52.468;13.342;2022-09-30T05:21:56;11.53;;;8.73;;
4961;SDS011;2496;52.468;13.342;2022-09-30T05:24:22;12.30;;;8.53;;
4961;SDS011;2496;52.468;13.342;2022-09-30T05:26:49;13.40;;;8.60;;
4961;SDS011;2496;52.468;13.342;2022-09-30T05:29:16;16.87;;;8.97;;
4961;SDS011;2496;52.468;13.342;2022-09-30T05:31:43;13.50;;;8.70;;
4961;SDS011;2496;52.468;13.342;2022-09-30T05:34:11;11.63;;;8.67;;
4961;SDS011;2496;52.468;13.342;2022-09-30T05:36:40;12.50;;;9.27;;
4961;SDS011;2496;52.468;13.342;2022-09-30T05:39:07;11.27;;;9.57;;
4961;SDS011;2496;52.468;13.342;2022-09-30T05:41:35;10.87;;;8.23;;
4961;SDS011;2496;52.468;13.342;2022-09-30T05:44:02;11.30;;;8.17;;
4961;SDS011;2496;52.468;13.342;2022-09-30T05:46:29;11.30;;;9.17;;
4961;SDS011;2496;52.468;13.342;2022-09-30T05:48:56;16.03;;;9.27;;
4961;SDS011;2496;52.468;13.342;2022-09-30T05:51:24;12.20;;;9.20;;
4961;SDS011;2496;52.468;13.342;2022-09-30T05:53:52;17.10;;;11.20;;
4961;SDS011;2496;52.468;13.342;2022-09-30T05:56:19;17.60;;;10.80;;
4961;SDS011;2496;52.468;13.342;2022-09-30T05:58:46;14.27;;;9.30;;
4961;SDS011;2496;52.468;13.342;2022-09-30T06:01:14;13.27;;;10.30;;
4961;SDS011;2496;52.468;13.342;2022-09-30T06:03:42;15.17;;;10.70;;
4961;SDS011;2496;52.468;13.342;2022-09-30T06:06:10;13.73;;;10.53;;
4961;SDS011;2496;52.468;13.342;2022-09-30T06:08:39;13.47;;;9.57;;
4961;SDS011;2496;52.468;13.342;2022-09-30T06:11:08;14.50;;;9.43;;
4961;SDS011;2496;52.468;13.342;2022-09-30T06:13:37;17.83;;;10.90;;
4961;SDS011;2496;52.468;13.342;2022-09-30T06:16:04;17.50;;;11.27;;
4961;SDS011;2496;52.468;13.342;2022-09-30T06:18:32;16.90;;;10.73;;
4961;SDS011;2496;52.468;13.342;2022-09-30T06:20:59;15.40;;;10.40;;
4961;SDS011;2496;52.468;13.342;2022-09-30T06:23:28;14.40;;;9.60;;
4961;SDS011;2496;52.468;13.342;2022-09-30T06:25:56;15.23;;;10.00;;
4961;SDS011;2496;52.468;13.342;2022-09-30T06:28:24;15.33;;;9.83;;
4961;SDS011;2496;52.468;13.342;2022-09-30T06:30:52;16.13;;;9.67;;
4961;SDS011;2496;52.468;13.342;2022-09-30T06:33:19;13.63;;;9.47;;
4961;SDS011;2496;52.468;13.342;2022-09-30T06:35:47;16.00;;;10.27;;
4961;SDS011;2496;52.468;13.342;2022-09-30T06:38:15;16.40;;;10.40;;
4961;SDS011;2496;52.468;13.342;2022-09-30T06:40:42;13.57;;;9.47;;
4961;SDS011;2496;52.468;13.342;2022-09-30T06:43:15;16.40;;;10.50;;
4961;SDS011;2496;52.468;13.342;2022-09-30T06:45:43;12.00;;;9.57;;
4961;SDS011;2496;52.468;13.342;2022-09-30T06:48:10;11.87;;;9.10;;
4961;SDS011;2496;52.468;13.342;2022-09-30T06:50:37;16.40;;;10.37;;
4961;SDS011;2496;52.468;13.342;2022-09-30T06:53:06;15.30;;;10.00;;
4961;SDS011;2496;52.468;13.342;2022-09-30T06:55:34;20.90;;;12.80;;
4961;SDS011;2496;52.468;13.342;2022-09-30T06:58:03;16.37;;;10.23;;
4961;SDS011;2496;52.468;13.342;2022-09-30T07:00:33;20.30;;;10.47;;
4961;SDS011;2496;52.468;13.342;2022-09-30T07:03:01;14.90;;;10.33;;
4961;SDS011;2496;52.468;13.342;2022-09-30T07:05:29;18.37;;;11.27;;
4961;SDS011;2496;52.468;13.342;2022-09-30T07:07:56;15.17;;;10.87;;
4961;SDS011;2496;52.468;13.342;2022-09-30T07:10:24;18.50;;;10.17;;
4961;SDS011;2496;52.468;13.342;2022-09-30T07:12:51;17.70;;;10.77;;
4961;SDS011;2496;52.468;13.342;2022-09-30T07:15:19;14.60;;;9.07;;
4961;SDS011;2496;52.468;13.342;2022-09-30T07:17:50;17.33;;;10.30;;
4961;SDS011;2496;52.468;13.342;2022-09-30T07:20:17;18.50;;;9.80;;
4961;SDS011;2496;52.468;13.342;2022-09-30T07:22:44;16.70;;;9.27;;
4961;SDS011;2496;52.468;13.342;2022-09-30T07:25:11;19.90;;;10.40;;
4961;SDS011;2496;52.468;13.342;2022-09-30T07:27:38;16.97;;;9.23;;
4961;SDS011;2496;52.468;13.342;2022-09-30T07:30:06;18.70;;;9.80;;
4961;SDS011;2496;52.468;13.342;2022-09-30T07:32:33;12.20;;;8.70;;
4961;SDS011;2496;52.468;13.342;2022-09-30T07:35:02;13.20;;;9.00;;
4961;SDS011;2496;52.468;13.342;2022-09-30T07:37:30;13.17;;;8.83;;
4961;SDS011;2496;52.468;13.342;2022-09-30T07:40:00;17.17;;;10.10;;
4961;SDS011;2496;52.468;13.342;2022-09-30T07:42:29;13.10;;;9.30;;
4961;SDS011;2496;52.468;13.342;2022-09-30T07:44:56;13.40;;;9.83;;
4961;SDS011;2496;52.468;13.342;2022-09-30T07:47:23;25.30;;;10.83;;
4961;SDS011;2496;52.468;13.342;2022-09-30T07:49:50;28.80;;;11.03;;
4961;SDS011;2496;52.468;13.342;2022-09-30T07:52:18;14.90;;;10.70;;
4961;SDS011;2496;52.468;13.342;2022-09-30T07:54:45;15.50;;;9.70;;
4961;SDS011;2496;52.468;13.342;2022-09-30T07:57:12;19.83;;;10.97;;
4961;SDS011;2496;52.468;13.342;2022-09-30T07:59:40;14.50;;;11.20;;
4961;SDS011;2496;52.468;13.342;2022-09-30T08:02:09;20.77;;;12.73;;
4961;SDS011;2496;52.468;13.342;2022-09-30T08:04:39;23.67;;;11.43;;
4961;SDS011;2496;52.468;13.342;2022-09-30T08:07:06;21.77;;;12.17;;
4961;SDS011;2496;52.468;13.342;2022-09-30T08:09:35;15.83;;;12.43;;
4961;SDS011;2496;52.468;13.342;2022-09-30T08:12:02;16.83;;;11.50;;
4961;SDS011;2496;52.468;13.342;2022-09-30T08:14:29;18.30;;;13.10;;
4961;SDS011;2496;52.468;13.342;2022-09-30T08:16:56;16.87;;;12.50;;
4961;SDS011;2496;52.468;13.342;2022-09-30T08:19:24;16.93;;;12.17;;
4961;SDS011;2496;52.468;13.342;2022-09-30T08:21:52;16.53;;;12.13;;
4961;SDS011;2496;52.468;13.342;2022-09-30T08:24:20;18.57;;;11.63;;
4961;SDS011;2496;52.468;13.342;2022-09-30T08:26:49;15.03;;;11.27;;
4961;SDS011;2496;52.468;13.342;2022-09-30T08:29:17;18.73;;;11.80;;
4961;SDS011;2496;52.468;13.342;2022-09-30T08:31:44;15.37;;;11.63;;
4961;SDS011;2496;52.468;13.342;2022-09-30T08:34:11;17.00;;;11.70;;
4961;SDS011;2496;52.468;13.342;2022-09-30T08:36:38;16.53;;;11.30;;
4961;SDS011;2496;52.468;13.342;2022-09-30T08:39:04;16.67;;;12.50;;
4961;SDS011;2496;52.468;13.342;2022-09-30T08:41:38;17.00;;;11.97;;
4961;SDS011;2496;52.468;13.342;2022-09-30T08:44:42;19.63;;;13.87;;
4961;SDS011;2496;52.468;13.342;2022-09-30T08:47:28;19.30;;;11.50;;
4961;SDS011;2496;52.468;13.342;2022-09-30T08:50:07;21.00;;;12.43;;
4961;SDS011;2496;52.468;13.342;2022-09-30T08:52:41;15.40;;;11.70;;
4961;SDS011;2496;52.468;13.342;2022-09-30T08:55:13;17.07;;;12.17;;
4961;SDS011;2496;52.468;13.342;2022-09-30T08:57:44;13.87;;;10.90;;
4961;SDS011;2496;52.468;13.342;2022-09-30T09:00:13;15.20;;;11.37;;
4961;SDS011;2496;52.468;13.342;2022-09-30T09:02:43;15.67;;;9.77;;
4961;SDS011;2496;52.468;13.342;2022-09-30T09:05:14;14.30;;;10.37;;
4961;SDS011;2496;52.468;13.342;2022-09-30T09:07:48;13.17;;;9.90;;
4961;SDS011;2496;52.468;13.342;2022-09-30T09:10:23;14.20;;;10.33;;
4961;SDS011;2496;52.468;13.342;2022-09-30T09:12:55;17.67;;;10.70;;
4961;SDS011;2496;52.468;13.342;2022-09-30T09:15:34;15.07;;;11.10;;
4961;SDS011;2496;52.468;13.342;2022-09-30T09:18:22;14.87;;;10.73;;
4961;SDS011;2496;52.468;13.342;2022-09-30T09:21:00;12.87;;;9.17;;
4961;SDS011;2496;52.468;13.342;2022-09-30T09:23:33;13.63;;;8.53;;
4961;SDS011;2496;52.468;13.342;2022-09-30T09:26:01;19.37;;;9.67;;
4961;SDS011;2496;52.468;13.342;2022-09-30T09:28:30;15.40;;;9.50;;
4961;SDS011;2496;52.468;13.342;2022-09-30T09:31:04;13.83;;;9.70;;
4961;SDS011;2496;52.468;13.342;2022-09-30T09:33:38;15.40;;;9.77;;
4961;SDS011;2496;52.468;13.342;2022-09-30T09:36:10;11.13;;;8.80;;
4961;SDS011;2496;52.468;13.342;2022-09-30T09:38:51;13.73;;;8.70;;
4961;SDS011;2496;52.468;13.342;2022-09-30T09:41:29;11.40;;;9.20;;
4961;SDS011;2496;52.468;13.342;2022-09-30T09:44:05;15.60;;;8.80;;
4961;SDS011;2496;52.468;13.342;2022-09-30T09:46:43;11.67;;;8.67;;
4961;SDS011;2496;52.468;13.342;2022-09-30T09:49:25;10.93;;;8.00;;
4961;SDS011;2496;52.468;13.342;2022-09-30T09:52:12;11.23;;;8.50;;
4961;SDS011;2496;52.468;13.342;2022-09-30T09:55:08;13.50;;;9.30;;
4961;SDS011;2496;52.468;13.342;2022-09-30T09:57:36;9.57;;;7.53;;
4961;SDS011;2496;52.468;13.342;2022-09-30T10:00:05;11.37;;;8.23;;
4961;SDS011;2496;52.468;13.342;2022-09-30T10:02:59;11.00;;;8.50;;
4961;SDS011;2496;52.468;13.342;2022-09-30T10:05:28;11.43;;;8.30;;
4961;SDS011;2496;52.468;13.342;2022-09-30T10:10:48;12.17;;;9.20;;
4961;SDS011;2496;52.468;13.342;2022-09-30T10:13:18;15.70;;;10.83;;
4961;SDS011;2496;52.468;13.342;2022-09-30T10:15:47;10.60;;;7.70;;
4961;SDS011;2496;52.468;13.342;2022-09-30T10:18:18;9.97;;;7.80;;
4961;SDS011;2496;52.468;13.342;2022-09-30T10:20:49;8.60;;;6.70;;
4961;SDS011;2496;52.468;13.342;2022-09-30T10:23:19;9.40;;;6.40;;
4961;SDS011;2496;52.468;13.342;2022-09-30T10:25:54;12.50;;;8.10;;
4961;SDS011;2496;52.468;13.342;2022-09-30T10:28:24;12.70;;;9.00;;
4961;SDS011;2496;52.468;13.342;2022-09-30T10:30:54;10.13;;;8.47;;
4961;SDS011;2496;52.468;13.342;2022-09-30T10:33:30;15.20;;;8.30;;
4961;SDS011;2496;52.468;13.342;2022-09-30T10:36:05;10.57;;;7.73;;
4961;SDS011;2496;52.468;13.342;2022-09-30T10:38:34;6.37;;;5.50;;
4961;SDS011;2496;52.468;13.342;2022-09-30T10:41:03;10.23;;;6.80;;
4961;SDS011;2496;52.468;13.342;2022-09-30T10:43:33;6.70;;;5.77;;
4961;SDS011;2496;52.468;13.342;2022-09-30T10:46:04;8.13;;;5.07;;
4961;SDS011;2496;52.468;13.342;2022-09-30T10:48:35;9.10;;;6.20;;
4961;SDS011;2496;52.468;13.342;2022-09-30T10:51:03;8.70;;;6.50;;
4961;SDS011;2496;52.468;13.342;2022-09-30T10:53:41;6.90;;;5.83;;
4961;SDS011;2496;52.468;13.342;2022-09-30T10:56:09;11.90;;;6.90;;
4961;SDS011;2496;52.468;13.342;2022-09-30T10:58:40;8.03;;;6.10;;
4961;SDS011;2496;52.468;13.342;2022-09-30T11:01:14;7.43;;;6.20;;
4961;SDS011;2496;52.468;13.342;2022-09-30T11:03:51;11.53;;;8.40;;
4961;SDS011;2496;52.468;13.342;2022-09-30T11:06:22;10.00;;;7.60;;
4961;SDS011;2496;52.468;13.342;2022-09-30T11:08:52;12.63;;;7.93;;
4961;SDS011;2496;52.468;13.342;2022-09-30T11:11:23;9.37;;;5.50;;
4961;SDS011;2496;52.468;13.342;2022-09-30T11:13:54;10.87;;;6.20;;
4961;SDS011;2496;52.468;13.342;2022-09-30T11:16:26;19.43;;;9.27;;
4961;SDS011;2496;52.468;13.342;2022-09-30T11:19:00;12.40;;;6.10;;
4961;SDS011;2496;52.468;13.342;2022-09-30T11:21:34;6.10;;;4.83;;
4961;SDS011;2496;52.468;13.342;2022-09-30T11:24:11;5.93;;;4.17;;
4961;SDS011;2496;52.468;13.342;2022-09-30T11:26:46;6.90;;;4.30;;
4961;SDS011;2496;52.468;13.342;2022-09-30T11:29:26;5.30;;;3.40;;
4961;SDS011;2496;52.468;13.342;2022-09-30T11:32:04;9.90;;;4.23;;
4961;SDS011;2496;52.468;13.342;2022-09-30T11:34:41;7.03;;;5.10;;
4961;SDS011;2496;52.468;13.342;2022-09-30T11:37:18;10.90;;;5.53;;
4961;SDS011;2496;52.468;13.342;2022-09-30T11:39:56;7.97;;;5.80;;
4961;SDS011;2496;52.468;13.342;2022-09-30T11:42:47;5.47;;;4.20;;
4961;SDS011;2496;52.468;13.342;2022-09-30T11:45:22;3.93;;;3.10;;
4961;SDS011;2496;52.468;13.342;2022-09-30T11:48:02;12.43;;;3.50;;
4961;SDS011;2496;52.468;13.342;2022-09-30T11:50:53;4.13;;;3.10;;
4961;SDS011;2496;52.468;13.342;2022-09-30T11:53:31;7.43;;;2.90;;
4961;SDS011;2496;52.468;13.342;2022-09-30T11:56:10;6.37;;;4.33;;
4961;SDS011;2496;52.468;13.342;2022-09-30T11:58:46;5.63;;;3.13;;
4961;SDS011;2496;52.468;13.342;2022-09-30T12:01:21;7.37;;;4.47;;
4961;SDS011;2496;52.468;13.342;2022-09-30T12:03:56;7.53;;;5.77;;
4961;SDS011;2496;52.468;13.342;2022-09-30T12:06:29;5.80;;;3.60;;
4961;SDS011;2496;52.468;13.342;2022-09-30T12:09:02;5.07;;;3.03;;
4961;SDS011;2496;52.468;13.342;2022-09-30T12:11:35;4.43;;;3.03;;
4961;SDS011;2496;52.468;13.342;2022-09-30T12:14:09;6.13;;;2.90;;
4961;SDS011;2496;52.468;13.342;2022-09-30T12:16:41;10.70;;;3.13;;
4961;SDS011;2496;52.468;13.342;2022-09-30T12:19:13;6.97;;;3.57;;
4961;SDS011;2496;52.468;13.342;2022-09-30T12:21:46;6.27;;;3.43;;
4961;SDS011;2496;52.468;13.342;2022-09-30T12:24:22;4.13;;;3.00;;
4961;SDS011;2496;52.468;13.342;2022-09-30T12:26:54;4.77;;;2.70;;
4961;SDS011;2496;52.468;13.342;2022-09-30T12:29:21;3.83;;;2.50;;
4961;SDS011;2496;52.468;13.342;2022-09-30T12:32:16;3.90;;;2.80;;
4961;SDS011;2496;52.468;13.342;2022-09-30T12:35:01;6.00;;;4.10;;
4961;SDS011;2496;52.468;13.342;2022-09-30T12:37:43;4.40;;;3.33;;
4961;SDS011;2496;52.468;13.342;2022-09-30T12:40:43;4.70;;;3.33;;
4961;SDS011;2496;52.468;13.342;2022-09-30T12:43:26;5.27;;;3.93;;
4961;SDS011;2496;52.468;13.342;2022-09-30T12:46:14;6.63;;;2.57;;
4961;SDS011;2496;52.468;13.342;2022-09-30T12:48:47;4.50;;;2.73;;
4961;SDS011;2496;52.468;13.342;2022-09-30T12:51:19;4.37;;;2.50;;
4961;SDS011;2496;52.468;13.342;2022-09-30T12:53:51;4.17;;;3.17;;
4961;SDS011;2496;52.468;13.342;2022-09-30T12:56:24;6.37;;;3.10;;
4961;SDS011;2496;52.468;13.342;2022-09-30T12:58:54;11.33;;;4.20;;
4961;SDS011;2496;52.468;13.342;2022-09-30T13:01:24;5.07;;;2.60;;
4961;SDS011;2496;52.468;13.342;2022-09-30T13:04:08;14.47;;;2.77;;
4961;SDS011;2496;52.468;13.342;2022-09-30T13:09:56;4.80;;;2.80;;
4961;SDS011;2496;52.468;13.342;2022-09-30T13:12:26;5.27;;;2.87;;
4961;SDS011;2496;52.468;13.342;2022-09-30T13:21:15;4.23;;;2.30;;
4961;SDS011;2496;52.468;13.342;2022-09-30T13:23:47;2.20;;;2.00;;
4961;SDS011;2496;52.468;13.342;2022-09-30T13:29:35;3.97;;;2.27;;
4961;SDS011;2496;52.468;13.342;2022-09-30T13:32:07;4.20;;;2.43;;
4961;SDS011;2496;52.468;13.342;2022-09-30T13:34:48;4.80;;;3.10;;
4961;SDS011;2496;52.468;13.342;2022-09-30T13:37:31;6.10;;;2.10;;
4961;SDS011;2496;52.468;13.342;2022-09-30T13:40:03;4.33;;;2.50;;
4961;SDS011;2496;52.468;13.342;2022-09-30T13:42:43;2.90;;;2.10;;
4961;SDS011;2496;52.468;13.342;2022-09-30T13:45:17;4.20;;;2.13;;
4961;SDS011;2496;52.468;13.342;2022-09-30T13:47:55;3.10;;;1.90;;
4961;SDS011;2496;52.468;13.342;2022-09-30T13:50:32;8.33;;;2.80;;
4961;SDS011;2496;52.468;13.342;2022-09-30T13:53:07;5.37;;;3.40;;
4961;SDS011;2496;52.468;13.342;2022-09-30T13:55:41;7.70;;;4.30;;
4961;SDS011;2496;52.468;13.342;2022-09-30T13:58:18;4.37;;;3.13;;
4961;SDS011;2496;52.468;13.342;2022-09-30T14:01:08;6.27;;;3.50;;
4961;SDS011;2496;52.468;13.342;2022-09-30T14:03:54;3.63;;;3.07;;
4961;SDS011;2496;52.468;13.342;2022-09-30T14:06:34;6.90;;;3.50;;
4961;SDS011;2496;52.468;13.342;2022-09-30T14:09:23;3.27;;;2.70;;
4961;SDS011;2496;52.468;13.342;2022-09-30T14:12:05;3.27;;;2.50;;
4961;SDS011;2496;52.468;13.342;2022-09-30T14:17:36;5.13;;;2.40;;
4961;SDS011;2496;52.468;13.342;2022-09-30T14:23:11;4.57;;;3.50;;
4961;SDS011;2496;52.468;13.342;2022-09-30T14:25:41;8.73;;;2.20;;
4961;SDS011;2496;52.468;13.342;2022-09-30T14:28:15;8.30;;;3.57;;
4961;SDS011;2496;52.468;13.342;2022-09-30T14:30:48;4.00;;;2.67;;
4961;SDS011;2496;52.468;13.342;2022-09-30T14:33:28;2.93;;;1.90;;
4961;SDS011;2496;52.468;13.342;2022-09-30T14:35:58;3.13;;;2.40;;
4961;SDS011;2496;52.468;13.342;2022-09-30T14:38:27;4.50;;;3.30;;
4961;SDS011;2496;52.468;13.342;2022-09-30T14:40:58;29.93;;;20.87;;
4961;SDS011;2496;52.468;13.342;2022-09-30T14:43:34;5.00;;;3.20;;
4961;SDS011;2496;52.468;13.342;2022-09-30T14:46:07;8.50;;;3.30;;
4961;SDS011;2496;52.468;13.342;2022-09-30T14:48:41;5.63;;;4.20;;
4961;SDS011;2496;52.468;13.342;2022-09-30T14:51:10;5.73;;;3.60;;
4961;SDS011;2496;52.468;13.342;2022-09-30T14:53:39;5.13;;;4.30;;
4961;SDS011;2496;52.468;13.342;2022-09-30T14:56:17;4.40;;;3.60;;
4961;SDS011;2496;52.468;13.342;2022-09-30T14:58:46;2.80;;;2.17;;
4961;SDS011;2496;52.468;13.342;2022-09-30T15:01:17;5.50;;;3.97;;
4961;SDS011;2496;52.468;13.342;2022-09-30T15:03:47;4.23;;;3.17;;
4961;SDS011;2496;52.468;13.342;2022-09-30T15:06:20;5.87;;;4.13;;
4961;SDS011;2496;52.468;13.342;2022-09-30T15:08:49;11.50;;;6.23;;
4961;SDS011;2496;52.468;13.342;2022-09-30T15:11:24;10.13;;;6.47;;
4961;SDS011;2496;52.468;13.342;2022-09-30T15:13:53;3.90;;;2.57;;
4961;SDS011;2496;52.468;13.342;2022-09-30T15:16:26;5.97;;;2.23;;
4961;SDS011;2496;52.468;13.342;2022-09-30T15:18:54;3.40;;;2.30;;
4961;SDS011;2496;52.468;13.342;2022-09-30T15:21:21;2.93;;;2.60;;
4961;SDS011;2496;52.468;13.342;2022-09-30T15:23:51;3.97;;;2.53;;
4961;SDS011;2496;52.468;13.342;2022-09-30T15:26:21;5.57;;;1.83;;
4961;SDS011;2496;52.468;13.342;2022-09-30T15:28:49;4.70;;;3.30;;
4961;SDS011;2496;52.468;13.342;2022-09-30T15:31:18;7.23;;;4.30;;
4961;SDS011;2496;52.468;13.342;2022-09-30T15:33:58;5.00;;;3.10;;
4961;SDS011;2496;52.468;13.342;2022-09-30T15:36:30;5.43;;;3.53;;
4961;SDS011;2496;52.468;13.342;2022-09-30T15:38:57;3.30;;;2.47;;
4961;SDS011;2496;52.468;13.342;2022-09-30T15:41:24;6.33;;;2.40;;
4961;SDS011;2496;52.468;13.342;2022-09-30T15:43:52;5.20;;;2.90;;
4961;SDS011;2496;52.468;13.342;2022-09-30T15:46:23;3.37;;;2.23;;
4961;SDS011;2496;52.468;13.342;2022-09-30T15:48:55;9.60;;;2.40;;
4961;SDS011;2496;52.468;13.342;2022-09-30T15:51:29;3.93;;;2.03;;
4961;SDS011;2496;52.468;13.342;2022-09-30T15:54:01;7.17;;;3.13;;